sensor_id;sensor_type;location;lat;lon;timestamp;pressure;altitude;pressure_sealevel;temperature
81657;BMP280;71067;51.482;-0.580;2023-11-21T00:01:54;101309.19;;;12.24
81657;BMP280;71067;51.482;-0.580;2023-11-21T00:04:19;101306.91;;;12.21
81657;BMP280;71067;51.482;-0.580;2023-11-21T00:06:45;101314.53;;;12.22
81657;BMP280;71067;51.482;-0.580;2023-11-21T00:09:15;101315.38;;;12.23
81657;BMP280;71067;51.482;-0.580;2023-11-21T00:11:43;101321.00;;;12.18
81657;BMP280;71067;51.482;-0.580;2023-11-21T00:14:10;101305.09;;;12.13
81657;BMP280;71067;51.482;-0.580;2023-11-21T00:16:35;101330.94;;;12.23
81657;BMP280;71067;51.482;-0.580;2023-11-21T00:19:01;101334.66;;;12.20
81657;BMP280;71067;51.482;-0.580;2023-11-21T00:21:27;101341.63;;;12.20
81657;BMP280;71067;51.482;-0.580;2023-11-21T00:23:53;101346.34;;;12.16
81657;BMP280;71067;51.482;-0.580;2023-11-21T00:26:18;101344.75;;;12.23
81657;BMP280;71067;51.482;-0.580;2023-11-21T00:28:43;101354.75;;;12.18
81657;BMP280;71067;51.482;-0.580;2023-11-21T00:31:09;101351.22;;;12.19
81657;BMP280;71067;51.482;-0.580;2023-11-21T00:33:34;101355.72;;;12.17
81657;BMP280;71067;51.482;-0.580;2023-11-21T00:35:59;101348.56;;;12.11
81657;BMP280;71067;51.482;-0.580;2023-11-21T00:38:26;101366.09;;;12.17
81657;BMP280;71067;51.482;-0.580;2023-11-21T00:40:52;101370.50;;;12.17
81657;BMP280;71067;51.482;-0.580;2023-11-21T00:43:21;101363.69;;;12.16
81657;BMP280;71067;51.482;-0.580;2023-11-21T00:45:46;101361.91;;;12.16
81657;BMP280;71067;51.482;-0.580;2023-11-21T00:48:14;101375.69;;;12.17
81657;BMP280;71067;51.482;-0.580;2023-11-21T00:50:40;101372.94;;;12.18
81657;BMP280;71067;51.482;-0.580;2023-11-21T00:53:05;101375.69;;;12.17
81657;BMP280;71067;51.482;-0.580;2023-11-21T00:55:32;101353.44;;;12.14
81657;BMP280;71067;51.482;-0.580;2023-11-21T00:57:58;101369.22;;;12.21
81657;BMP280;71067;51.482;-0.580;2023-11-21T01:00:23;101370.03;;;12.21
81657;BMP280;71067;51.482;-0.580;2023-11-21T01:02:49;101377.81;;;12.21
81657;BMP280;71067;51.482;-0.580;2023-11-21T01:05:14;101373.47;;;12.22
81657;BMP280;71067;51.482;-0.580;2023-11-21T01:07:40;101364.31;;;12.18
81657;BMP280;71067;51.482;-0.580;2023-11-21T01:10:05;101386.09;;;12.25
81657;BMP280;71067;51.482;-0.580;2023-11-21T01:12:36;101387.72;;;12.26
81657;BMP280;71067;51.482;-0.580;2023-11-21T01:15:03;101393.75;;;12.26
81657;BMP280;71067;51.482;-0.580;2023-11-21T01:17:29;101390.81;;;12.21
81657;BMP280;71067;51.482;-0.580;2023-11-21T01:19:54;101409.84;;;12.30
81657;BMP280;71067;51.482;-0.580;2023-11-21T01:22:21;101409.84;;;12.30
81657;BMP280;71067;51.482;-0.580;2023-11-21T01:24:51;101404.78;;;12.28
81657;BMP280;71067;51.482;-0.580;2023-11-21T01:27:16;101413.25;;;12.30
81657;BMP280;71067;51.482;-0.580;2023-11-21T01:29:42;101417.66;;;12.30
81657;BMP280;71067;51.482;-0.580;2023-11-21T01:32:07;101413.25;;;12.30
81657;BMP280;71067;51.482;-0.580;2023-11-21T01:34:33;101427.84;;;12.31
81657;BMP280;71067;51.482;-0.580;2023-11-21T01:36:58;101422.03;;;12.29
81657;BMP280;71067;51.482;-0.580;2023-11-21T01:39:25;101435.63;;;12.31
81657;BMP280;71067;51.482;-0.580;2023-11-21T01:41:51;101440.81;;;12.31
81657;BMP280;71067;51.482;-0.580;2023-11-21T01:44:17;101439.22;;;12.30
81657;BMP280;71067;51.482;-0.580;2023-11-21T01:46:44;101443.41;;;12.31
81657;BMP280;71067;51.482;-0.580;2023-11-21T01:49:10;101448.63;;;12.31
81657;BMP280;71067;51.482;-0.580;2023-11-21T01:51:41;101446.84;;;12.32
81657;BMP280;71067;51.482;-0.580;2023-11-21T01:54:09;101443.59;;;12.30
81657;BMP280;71067;51.482;-0.580;2023-11-21T01:56:34;101447.97;;;12.29
81657;BMP280;71067;51.482;-0.580;2023-11-21T01:59:00;101449.75;;;12.29
81657;BMP280;71067;51.482;-0.580;2023-11-21T02:01:25;101447.28;;;12.27
81657;BMP280;71067;51.482;-0.580;2023-11-21T02:03:51;101450.59;;;12.29
81657;BMP280;71067;51.482;-0.580;2023-11-21T02:06:16;101451.69;;;12.27
81657;BMP280;71067;51.482;-0.580;2023-11-21T02:08:42;101458.78;;;12.25
81657;BMP280;71067;51.482;-0.580;2023-11-21T02:11:09;101460.44;;;12.26
81657;BMP280;71067;51.482;-0.580;2023-11-21T02:13:35;101465.47;;;12.27
81657;BMP280;71067;51.482;-0.580;2023-11-21T02:16:01;101455.41;;;12.24
81657;BMP280;71067;51.482;-0.580;2023-11-21T02:18:26;101453.25;;;12.20
81657;BMP280;71067;51.482;-0.580;2023-11-21T02:20:55;101453.13;;;12.21
81657;BMP280;71067;51.482;-0.580;2023-11-21T02:23:20;101471.13;;;12.23
81657;BMP280;71067;51.482;-0.580;2023-11-21T02:25:46;101472.25;;;12.20
81657;BMP280;71067;51.482;-0.580;2023-11-21T02:28:12;101474.84;;;12.20
81657;BMP280;71067;51.482;-0.580;2023-11-21T02:30:40;101474.00;;;12.20
81657;BMP280;71067;51.482;-0.580;2023-11-21T02:33:06;101490.13;;;12.23
81657;BMP280;71067;51.482;-0.580;2023-11-21T02:35:32;101483.59;;;12.19
81657;BMP280;71067;51.482;-0.580;2023-11-21T02:37:57;101499.38;;;12.26
81657;BMP280;71067;51.482;-0.580;2023-11-21T02:40:22;101501.31;;;12.24
81657;BMP280;71067;51.482;-0.580;2023-11-21T02:42:50;101502.78;;;12.26
81657;BMP280;71067;51.482;-0.580;2023-11-21T02:45:21;101488.28;;;12.16
81657;BMP280;71067;51.482;-0.580;2023-11-21T02:47:47;101497.38;;;12.20
81657;BMP280;71067;51.482;-0.580;2023-11-21T02:50:12;101499.31;;;12.18
81657;BMP280;71067;51.482;-0.580;2023-11-21T02:52:38;101501.47;;;12.22
81657;BMP280;71067;51.482;-0.580;2023-11-21T02:55:05;101494.44;;;12.15
81657;BMP280;71067;51.482;-0.580;2023-11-21T02:57:32;101506.97;;;12.19
81657;BMP280;71067;51.482;-0.580;2023-11-21T02:59:58;101510.81;;;12.15
81657;BMP280;71067;51.482;-0.580;2023-11-21T03:02:25;101516.28;;;12.12
81657;BMP280;71067;51.482;-0.580;2023-11-21T03:04:51;101523.50;;;12.18
81657;BMP280;71067;51.482;-0.580;2023-11-21T03:07:17;101525.56;;;12.15
81657;BMP280;71067;51.482;-0.580;2023-11-21T03:09:45;101521.50;;;12.12
81657;BMP280;71067;51.482;-0.580;2023-11-21T03:12:10;101524.41;;;12.09
81657;BMP280;71067;51.482;-0.580;2023-11-21T03:14:37;101528.34;;;12.13
81657;BMP280;71067;51.482;-0.580;2023-11-21T03:17:03;101532.69;;;12.13
81657;BMP280;71067;51.482;-0.580;2023-11-21T03:19:30;101529.44;;;12.11
81657;BMP280;71067;51.482;-0.580;2023-11-21T03:21:56;101539.31;;;12.07
81657;BMP280;71067;51.482;-0.580;2023-11-21T03:24:21;101542.56;;;12.09
81657;BMP280;71067;51.482;-0.580;2023-11-21T03:26:47;101537.28;;;12.01
81657;BMP280;71067;51.482;-0.580;2023-11-21T03:29:13;101547.75;;;12.09
81657;BMP280;71067;51.482;-0.580;2023-11-21T03:31:39;101542.06;;;12.06
81657;BMP280;71067;51.482;-0.580;2023-11-21T03:34:04;101550.66;;;12.06
81657;BMP280;71067;51.482;-0.580;2023-11-21T03:36:30;101535.53;;;12.02
81657;BMP280;71067;51.482;-0.580;2023-11-21T03:38:55;101557.34;;;12.09
81657;BMP280;71067;51.482;-0.580;2023-11-21T03:41:21;101566.91;;;12.08
81657;BMP280;71067;51.482;-0.580;2023-11-21T03:43:46;101572.38;;;12.05
81657;BMP280;71067;51.482;-0.580;2023-11-21T03:46:11;101575.28;;;12.02
81657;BMP280;71067;51.482;-0.580;2023-11-21T03:48:37;101572.97;;;11.99
81657;BMP280;71067;51.482;-0.580;2023-11-21T03:51:03;101578.44;;;11.96
81657;BMP280;71067;51.482;-0.580;2023-11-21T03:53:28;101585.00;;;12.00
81657;BMP280;71067;51.482;-0.580;2023-11-21T03:55:54;101587.78;;;11.89
81657;BMP280;71067;51.482;-0.580;2023-11-21T03:58:19;101596.94;;;11.93
81657;BMP280;71067;51.482;-0.580;2023-11-21T04:00:46;101600.63;;;11.90
81657;BMP280;71067;51.482;-0.580;2023-11-21T04:03:12;101603.34;;;11.89
81657;BMP280;71067;51.482;-0.580;2023-11-21T04:05:38;101619.09;;;11.87
81657;BMP280;71067;51.482;-0.580;2023-11-21T04:08:04;101620.47;;;11.82
81657;BMP280;71067;51.482;-0.580;2023-11-21T04:10:29;101617.22;;;11.80
81657;BMP280;71067;51.482;-0.580;2023-11-21T04:12:54;101601.56;;;11.72
81657;BMP280;71067;51.482;-0.580;2023-11-21T04:15:20;101614.75;;;11.78
81657;BMP280;71067;51.482;-0.580;2023-11-21T04:17:45;101626.00;;;11.69
81657;BMP280;71067;51.482;-0.580;2023-11-21T04:20:11;101632.00;;;11.70
81657;BMP280;71067;51.482;-0.580;2023-11-21T04:22:38;101622.91;;;11.66
81657;BMP280;71067;51.482;-0.580;2023-11-21T04:25:07;101642.75;;;11.75
81657;BMP280;71067;51.482;-0.580;2023-11-21T04:27:33;101654.13;;;11.74
81657;BMP280;71067;51.482;-0.580;2023-11-21T04:29:59;101656.72;;;11.74
81657;BMP280;71067;51.482;-0.580;2023-11-21T04:32:25;101660.25;;;11.73
81657;BMP280;71067;51.482;-0.580;2023-11-21T04:34:50;101662.84;;;11.73
81657;BMP280;71067;51.482;-0.580;2023-11-21T04:37:15;101655.06;;;11.73
81657;BMP280;71067;51.482;-0.580;2023-11-21T04:39:40;101669.13;;;11.70
81657;BMP280;71067;51.482;-0.580;2023-11-21T04:42:06;101670.91;;;11.70
81657;BMP280;71067;51.482;-0.580;2023-11-21T04:44:31;101678.41;;;11.73
81657;BMP280;71067;51.482;-0.580;2023-11-21T04:46:56;101675.59;;;11.66
81657;BMP280;71067;51.482;-0.580;2023-11-21T04:49:22;101675.72;;;11.65
81657;BMP280;71067;51.482;-0.580;2023-11-21T04:51:47;101673.72;;;11.59
81657;BMP280;71067;51.482;-0.580;2023-11-21T04:54:12;101673.84;;;11.57
81657;BMP280;71067;51.482;-0.580;2023-11-21T04:56:37;101677.91;;;11.60
81657;BMP280;71067;51.482;-0.580;2023-11-21T04:59:03;101674.56;;;11.50
81657;BMP280;71067;51.482;-0.580;2023-11-21T05:01:29;101669.63;;;11.47
81657;BMP280;71067;51.482;-0.580;2023-11-21T05:03:55;101670.22;;;11.41
81657;BMP280;71067;51.482;-0.580;2023-11-21T05:06:22;101688.75;;;11.46
81657;BMP280;71067;51.482;-0.580;2023-11-21T05:08:49;101684.38;;;11.46
81657;BMP280;71067;51.482;-0.580;2023-11-21T05:11:24;101686.31;;;11.44
81657;BMP280;71067;51.482;-0.580;2023-11-21T05:13:49;101697.66;;;11.43
81657;BMP280;71067;51.482;-0.580;2023-11-21T05:16:15;101687.00;;;11.37
81657;BMP280;71067;51.482;-0.580;2023-11-21T05:18:40;101687.00;;;11.37
81657;BMP280;71067;51.482;-0.580;2023-11-21T05:21:06;101692.84;;;11.39
81657;BMP280;71067;51.482;-0.580;2023-11-21T05:23:32;101702.28;;;11.40
81657;BMP280;71067;51.482;-0.580;2023-11-21T05:25:59;101709.22;;;11.39
81657;BMP280;71067;51.482;-0.580;2023-11-21T05:28:24;101719.59;;;11.39
81657;BMP280;71067;51.482;-0.580;2023-11-21T05:30:50;101723.69;;;11.42
81657;BMP280;71067;51.482;-0.580;2023-11-21T05:33:15;101730.78;;;11.40
81657;BMP280;71067;51.482;-0.580;2023-11-21T05:35:41;101726.56;;;11.39
81657;BMP280;71067;51.482;-0.580;2023-11-21T05:38:06;101733.94;;;11.34
81657;BMP280;71067;51.482;-0.580;2023-11-21T05:40:31;101736.28;;;11.37
81657;BMP280;71067;51.482;-0.580;2023-11-21T05:42:57;101751.53;;;11.40
81657;BMP280;71067;51.482;-0.580;2023-11-21T05:45:22;101743.91;;;11.38
81657;BMP280;71067;51.482;-0.580;2023-11-21T05:47:47;101759.06;;;11.43
81657;BMP280;71067;51.482;-0.580;2023-11-21T05:50:14;101762.34;;;11.35
81657;BMP280;71067;51.482;-0.580;2023-11-21T05:52:41;101774.75;;;11.32
81657;BMP280;71067;51.482;-0.580;2023-11-21T05:55:08;101777.19;;;11.33
81657;BMP280;71067;51.482;-0.580;2023-11-21T05:57:37;101791.41;;;11.29
81657;BMP280;71067;51.482;-0.580;2023-11-21T06:00:07;101789.34;;;11.33
81657;BMP280;71067;51.482;-0.580;2023-11-21T06:02:37;101783.34;;;11.32
81657;BMP280;71067;51.482;-0.580;2023-11-21T06:05:03;101785.66;;;11.26
81657;BMP280;71067;51.482;-0.580;2023-11-21T06:07:29;101787.56;;;11.24
81657;BMP280;71067;51.482;-0.580;2023-11-21T06:09:54;101805.19;;;11.20
81657;BMP280;71067;51.482;-0.580;2023-11-21T06:12:20;101806.41;;;11.16
81657;BMP280;71067;51.482;-0.580;2023-11-21T06:14:45;101804.09;;;11.13
81657;BMP280;71067;51.482;-0.580;2023-11-21T06:17:11;101820.47;;;11.14
81657;BMP280;71067;51.482;-0.580;2023-11-21T06:19:36;101834.91;;;11.16
81657;BMP280;71067;51.482;-0.580;2023-11-21T06:22:02;101827.16;;;11.07
81657;BMP280;71067;51.482;-0.580;2023-11-21T06:24:27;101829.59;;;11.08
81657;BMP280;71067;51.482;-0.580;2023-11-21T06:26:53;101835.69;;;11.07
81657;BMP280;71067;51.482;-0.580;2023-11-21T06:29:18;101837.72;;;10.94
81657;BMP280;71067;51.482;-0.580;2023-11-21T06:31:44;101835.19;;;11.03
81657;BMP280;71067;51.482;-0.580;2023-11-21T06:34:11;101833.69;;;11.01
81657;BMP280;71067;51.482;-0.580;2023-11-21T06:36:37;101828.78;;;10.98
81657;BMP280;71067;51.482;-0.580;2023-11-21T06:39:02;101850.75;;;11.03
81657;BMP280;71067;51.482;-0.580;2023-11-21T06:41:31;101851.00;;;11.00
81657;BMP280;71067;51.482;-0.580;2023-11-21T06:43:57;101842.50;;;10.89
81657;BMP280;71067;51.482;-0.580;2023-11-21T06:46:24;101860.94;;;10.95
81657;BMP280;71067;51.482;-0.580;2023-11-21T06:48:49;101864.63;;;10.93
81657;BMP280;71067;51.482;-0.580;2023-11-21T06:51:16;101860.25;;;10.93
81657;BMP280;71067;51.482;-0.580;2023-11-21T06:53:41;101876.59;;;10.94
81657;BMP280;71067;51.482;-0.580;2023-11-21T06:56:19;101877.69;;;10.91
81657;BMP280;71067;51.482;-0.580;2023-11-21T06:58:45;101890.38;;;10.94
81657;BMP280;71067;51.482;-0.580;2023-11-21T07:01:12;101896.66;;;10.92
81657;BMP280;71067;51.482;-0.580;2023-11-21T07:03:37;101883.41;;;10.85
81657;BMP280;71067;51.482;-0.580;2023-11-21T07:06:03;101897.47;;;10.92
81657;BMP280;71067;51.482;-0.580;2023-11-21T07:08:29;101889.03;;;10.90
81657;BMP280;71067;51.482;-0.580;2023-11-21T07:10:54;101905.69;;;10.97
81657;BMP280;71067;51.482;-0.580;2023-11-21T07:13:19;101909.50;;;10.93
81657;BMP280;71067;51.482;-0.580;2023-11-21T07:15:45;101911.38;;;10.91
81657;BMP280;71067;51.482;-0.580;2023-11-21T07:18:10;101907.19;;;10.90
81657;BMP280;71067;51.482;-0.580;2023-11-21T07:20:36;101905.94;;;10.94
81657;BMP280;71067;51.482;-0.580;2023-11-21T07:23:02;101915.59;;;10.92
81657;BMP280;71067;51.482;-0.580;2023-11-21T07:25:28;101918.47;;;10.89
81657;BMP280;71067;51.482;-0.580;2023-11-21T07:27:54;101927.50;;;10.95
81657;BMP280;71067;51.482;-0.580;2023-11-21T07:30:20;101941.38;;;10.94
81657;BMP280;71067;51.482;-0.580;2023-11-21T07:32:47;101932.81;;;10.93
81657;BMP280;71067;51.482;-0.580;2023-11-21T07:35:13;101942.22;;;10.94
81657;BMP280;71067;51.482;-0.580;2023-11-21T07:37:38;101944.69;;;10.96
81657;BMP280;71067;51.482;-0.580;2023-11-21T07:40:04;101949.88;;;10.96
81657;BMP280;71067;51.482;-0.580;2023-11-21T07:42:30;101946.69;;;10.92
81657;BMP280;71067;51.482;-0.580;2023-11-21T07:44:55;101952.22;;;10.99
81657;BMP280;71067;51.482;-0.580;2023-11-21T07:47:21;101946.88;;;10.91
81657;BMP280;71067;51.482;-0.580;2023-11-21T07:49:47;101959.50;;;10.94
81657;BMP280;71067;51.482;-0.580;2023-11-21T07:52:13;101956.41;;;10.90
81657;BMP280;71067;51.482;-0.580;2023-11-21T07:54:39;101971.41;;;10.96
81657;BMP280;71067;51.482;-0.580;2023-11-21T07:57:05;101964.34;;;10.98
81657;BMP280;71067;51.482;-0.580;2023-11-21T07:59:30;101971.84;;;11.01
81657;BMP280;71067;51.482;-0.580;2023-11-21T08:01:55;101969.53;;;10.98
81657;BMP280;71067;51.482;-0.580;2023-11-21T08:04:21;101974.44;;;11.01
81657;BMP280;71067;51.482;-0.580;2023-11-21T08:06:46;101963.63;;;10.96
81657;BMP280;71067;51.482;-0.580;2023-11-21T08:09:11;101981.00;;;11.05
81657;BMP280;71067;51.482;-0.580;2023-11-21T08:11:37;101986.19;;;11.05
81657;BMP280;71067;51.482;-0.580;2023-11-21T08:14:04;102000.63;;;11.08
81657;BMP280;71067;51.482;-0.580;2023-11-21T08:16:30;101997.38;;;11.06
81657;BMP280;71067;51.482;-0.580;2023-11-21T08:18:55;101995.63;;;11.07
81657;BMP280;71067;51.482;-0.580;2023-11-21T08:21:20;102000.38;;;11.11
81657;BMP280;71067;51.482;-0.580;2023-11-21T08:23:46;102003.66;;;11.13
81657;BMP280;71067;51.482;-0.580;2023-11-21T08:26:12;102009.25;;;11.08
81657;BMP280;71067;51.482;-0.580;2023-11-21T08:28:38;102007.22;;;11.12
81657;BMP280;71067;51.482;-0.580;2023-11-21T08:31:04;102003.09;;;11.09
81657;BMP280;71067;51.482;-0.580;2023-11-21T08:33:29;102004.50;;;11.14
81657;BMP280;71067;51.482;-0.580;2023-11-21T08:35:55;102007.56;;;11.07
81657;BMP280;71067;51.482;-0.580;2023-11-21T08:38:20;102004.88;;;11.09
81657;BMP280;71067;51.482;-0.580;2023-11-21T08:40:45;101990.69;;;11.03
81657;BMP280;71067;51.482;-0.580;2023-11-21T08:43:11;102014.03;;;11.13
81657;BMP280;71067;51.482;-0.580;2023-11-21T08:45:37;102011.03;;;11.18
81657;BMP280;71067;51.482;-0.580;2023-11-21T08:48:02;102016.34;;;11.16
81657;BMP280;71067;51.482;-0.580;2023-11-21T08:50:28;102023.31;;;11.16
81657;BMP280;71067;51.482;-0.580;2023-11-21T08:52:54;102026.59;;;11.18
81657;BMP280;71067;51.482;-0.580;2023-11-21T08:55:19;102029.19;;;11.18
81657;BMP280;71067;51.482;-0.580;2023-11-21T08:57:45;102029.75;;;11.21
81657;BMP280;71067;51.482;-0.580;2023-11-21T09:00:12;102040.13;;;11.21
81657;BMP280;71067;51.482;-0.580;2023-11-21T09:02:38;102045.16;;;11.23
81657;BMP280;71067;51.482;-0.580;2023-11-21T09:05:05;102055.28;;;11.26
81657;BMP280;71067;51.482;-0.580;2023-11-21T09:07:31;102057.63;;;11.29
81657;BMP280;71067;51.482;-0.580;2023-11-21T09:09:56;102057.06;;;11.25
81657;BMP280;71067;51.482;-0.580;2023-11-21T09:12:22;102058.59;;;11.28
81657;BMP280;71067;51.482;-0.580;2023-11-21T09:14:47;102064.19;;;11.33
81657;BMP280;71067;51.482;-0.580;2023-11-21T09:17:13;102063.34;;;11.32
81657;BMP280;71067;51.482;-0.580;2023-11-21T09:19:39;102077.41;;;11.30
81657;BMP280;71067;51.482;-0.580;2023-11-21T09:22:05;102065.25;;;11.30
81657;BMP280;71067;51.482;-0.580;2023-11-21T09:24:31;102074.50;;;11.23
81657;BMP280;71067;51.482;-0.580;2023-11-21T09:26:57;102071.66;;;11.26
81657;BMP280;71067;51.482;-0.580;2023-11-21T09:29:22;102068.78;;;11.20
81657;BMP280;71067;51.482;-0.580;2023-11-21T09:31:48;102087.09;;;11.28
81657;BMP280;71067;51.482;-0.580;2023-11-21T09:34:16;102085.84;;;11.22
81657;BMP280;71067;51.482;-0.580;2023-11-21T09:36:45;102091.69;;;11.24
81657;BMP280;71067;51.482;-0.580;2023-11-21T09:39:10;102093.78;;;11.30
81657;BMP280;71067;51.482;-0.580;2023-11-21T09:41:52;102110.13;;;11.31
81657;BMP280;71067;51.482;-0.580;2023-11-21T09:44:56;102107.44;;;11.32
81657;BMP280;71067;51.482;-0.580;2023-11-21T09:47:24;102113.47;;;11.33
81657;BMP280;71067;51.482;-0.580;2023-11-21T09:49:49;102103.59;;;11.27
81657;BMP280;71067;51.482;-0.580;2023-11-21T09:52:40;102114.56;;;11.40
81657;BMP280;71067;51.482;-0.580;2023-11-21T09:55:09;102116.91;;;11.43
81657;BMP280;71067;51.482;-0.580;2023-11-21T09:57:38;102118.09;;;11.39
81657;BMP280;71067;51.482;-0.580;2023-11-21T10:00:04;102106.66;;;11.41
81657;BMP280;71067;51.482;-0.580;2023-11-21T10:02:32;102130.88;;;11.51
81657;BMP280;71067;51.482;-0.580;2023-11-21T10:04:59;102131.66;;;11.52
81657;BMP280;71067;51.482;-0.580;2023-11-21T10:07:26;102125.53;;;11.53
81657;BMP280;71067;51.482;-0.580;2023-11-21T10:09:52;102131.31;;;11.56
81657;BMP280;71067;51.482;-0.580;2023-11-21T10:12:18;102127.75;;;11.57
81657;BMP280;71067;51.482;-0.580;2023-11-21T10:14:48;102121.19;;;11.53
81657;BMP280;71067;51.482;-0.580;2023-11-21T10:17:14;102123.69;;;11.64
81657;BMP280;71067;51.482;-0.580;2023-11-21T10:19:46;102112.72;;;11.61
81657;BMP280;71067;51.482;-0.580;2023-11-21T10:22:12;102126.63;;;11.60
81657;BMP280;71067;51.482;-0.580;2023-11-21T10:24:37;102118.75;;;11.61
81657;BMP280;71067;51.482;-0.580;2023-11-21T10:27:04;102129.56;;;11.66
81657;BMP280;71067;51.482;-0.580;2023-11-21T10:29:29;102130.09;;;11.70
81657;BMP280;71067;51.482;-0.580;2023-11-21T10:31:55;102129.16;;;11.71
81657;BMP280;71067;51.482;-0.580;2023-11-21T10:34:23;102136.53;;;11.75
81657;BMP280;71067;51.482;-0.580;2023-11-21T10:36:49;102130.00;;;11.71
81657;BMP280;71067;51.482;-0.580;2023-11-21T10:39:18;102141.38;;;11.80
81657;BMP280;71067;51.482;-0.580;2023-11-21T10:41:45;102137.13;;;11.79
81657;BMP280;71067;51.482;-0.580;2023-11-21T10:44:11;102135.22;;;11.81
81657;BMP280;71067;51.482;-0.580;2023-11-21T10:46:39;102138.47;;;11.83
81657;BMP280;71067;51.482;-0.580;2023-11-21T10:49:05;102140.53;;;11.79
81657;BMP280;71067;51.482;-0.580;2023-11-21T10:51:31;102146.13;;;11.84
81657;BMP280;71067;51.482;-0.580;2023-11-21T10:53:57;102136.69;;;11.83
81657;BMP280;71067;51.482;-0.580;2023-11-21T10:56:25;102138.34;;;11.84
81657;BMP280;71067;51.482;-0.580;2023-11-21T10:58:51;102142.72;;;11.84
81657;BMP280;71067;51.482;-0.580;2023-11-21T11:01:18;102149.97;;;11.90
81657;BMP280;71067;51.482;-0.580;2023-11-21T11:03:44;102147.81;;;11.95
81657;BMP280;71067;51.482;-0.580;2023-11-21T11:06:10;102136.03;;;11.91
81657;BMP280;71067;51.482;-0.580;2023-11-21T11:08:39;102149.72;;;11.93
81657;BMP280;71067;51.482;-0.580;2023-11-21T11:11:09;102144.53;;;11.93
81657;BMP280;71067;51.482;-0.580;2023-11-21T11:13:35;102137.00;;;11.90
81657;BMP280;71067;51.482;-0.580;2023-11-21T11:16:03;102149.28;;;11.88
81657;BMP280;71067;51.482;-0.580;2023-11-21T11:18:32;102143.53;;;11.84
81657;BMP280;71067;51.482;-0.580;2023-11-21T11:21:13;102157.94;;;11.98
81657;BMP280;71067;51.482;-0.580;2023-11-21T11:31:48;102164.38;;;12.13
81657;BMP280;71067;51.482;-0.580;2023-11-21T11:35:21;102165.59;;;12.19
81657;BMP280;71067;51.482;-0.580;2023-11-21T11:37:20;102154.41;;;12.18
81657;BMP280;71067;51.482;-0.580;2023-11-21T11:39:46;102143.75;;;12.21
81657;BMP280;71067;51.482;-0.580;2023-11-21T11:42:16;102150.03;;;12.28
81657;BMP280;71067;51.482;-0.580;2023-11-21T11:50:09;102148.81;;;12.42
81657;BMP280;71067;51.482;-0.580;2023-11-21T11:52:45;102157.84;;;12.47
81657;BMP280;71067;51.482;-0.580;2023-11-21T11:55:15;102174.13;;;12.49
81657;BMP280;71067;51.482;-0.580;2023-11-21T11:57:45;102165.38;;;12.50
81657;BMP280;71067;51.482;-0.580;2023-11-21T12:00:18;102166.72;;;12.54
81657;BMP280;71067;51.482;-0.580;2023-11-21T12:02:56;102175.06;;;12.58
81657;BMP280;71067;51.482;-0.580;2023-11-21T12:05:23;102175.06;;;12.58
81657;BMP280;71067;51.482;-0.580;2023-11-21T12:07:52;102182.72;;;12.59
81657;BMP280;71067;51.482;-0.580;2023-11-21T12:10:21;102187.09;;;12.59
81657;BMP280;71067;51.482;-0.580;2023-11-21T12:12:49;102188.44;;;12.53
81657;BMP280;71067;51.482;-0.580;2023-11-21T12:15:15;102181.50;;;12.54
81657;BMP280;71067;51.482;-0.580;2023-11-21T12:17:43;102178.38;;;12.50
81657;BMP280;71067;51.482;-0.580;2023-11-21T12:20:11;102181.38;;;12.55
81657;BMP280;71067;51.482;-0.580;2023-11-21T12:22:50;102199.13;;;12.60
81657;BMP280;71067;51.482;-0.580;2023-11-21T12:25:17;102206.78;;;12.61
81657;BMP280;71067;51.482;-0.580;2023-11-21T12:27:45;102199.97;;;12.60
81657;BMP280;71067;51.482;-0.580;2023-11-21T12:30:12;102212.97;;;12.60
81657;BMP280;71067;51.482;-0.580;2023-11-21T12:32:43;102210.34;;;12.60
81657;BMP280;71067;51.482;-0.580;2023-11-21T12:35:10;102205.84;;;12.53
81657;BMP280;71067;51.482;-0.580;2023-11-21T12:37:39;102222.66;;;12.58
81657;BMP280;71067;51.482;-0.580;2023-11-21T12:40:08;102219.25;;;12.58
81657;BMP280;71067;51.482;-0.580;2023-11-21T12:42:39;102229.63;;;12.58
81657;BMP280;71067;51.482;-0.580;2023-11-21T12:45:22;102221.97;;;12.56
81657;BMP280;71067;51.482;-0.580;2023-11-21T12:47:54;102228.69;;;12.49
81657;BMP280;71067;51.482;-0.580;2023-11-21T12:50:23;102220.97;;;12.38
81657;BMP280;71067;51.482;-0.580;2023-11-21T12:52:54;102239.22;;;12.48
81657;BMP280;71067;51.482;-0.580;2023-11-21T12:55:23;102249.03;;;12.44
81657;BMP280;71067;51.482;-0.580;2023-11-21T12:57:50;102251.63;;;12.44
81657;BMP280;71067;51.482;-0.580;2023-11-21T13:00:31;102258.63;;;12.44
81657;BMP280;71067;51.482;-0.580;2023-11-21T13:02:58;102261.63;;;12.49
81657;BMP280;71067;51.482;-0.580;2023-11-21T13:05:35;102253.56;;;12.42
81657;BMP280;71067;51.482;-0.580;2023-11-21T13:08:04;102266.28;;;12.45
81657;BMP280;71067;51.482;-0.580;2023-11-21T13:10:33;102273.09;;;12.37
81657;BMP280;71067;51.482;-0.580;2023-11-21T13:13:02;102272.53;;;12.33
81657;BMP280;71067;51.482;-0.580;2023-11-21T13:15:31;102275.81;;;12.35
81657;BMP280;71067;51.482;-0.580;2023-11-21T13:17:58;102282.31;;;12.20
81657;BMP280;71067;51.482;-0.580;2023-11-21T13:20:27;102279.97;;;12.17
81657;BMP280;71067;51.482;-0.580;2023-11-21T13:22:53;102280.97;;;12.26
81657;BMP280;71067;51.482;-0.580;2023-11-21T13:25:23;102279.63;;;12.31
81657;BMP280;71067;51.482;-0.580;2023-11-21T13:27:49;102290.28;;;12.28
81657;BMP280;71067;51.482;-0.580;2023-11-21T13:30:16;102288.91;;;12.24
81657;BMP280;71067;51.482;-0.580;2023-11-21T13:32:45;102301.09;;;12.33
81657;BMP280;71067;51.482;-0.580;2023-11-21T13:35:16;102298.47;;;12.24
81657;BMP280;71067;51.482;-0.580;2023-11-21T13:37:56;102331.41;;;12.23
81657;BMP280;71067;51.482;-0.580;2023-11-21T13:40:25;102331.66;;;12.20
81657;BMP280;71067;51.482;-0.580;2023-11-21T13:42:55;102331.25;;;12.25
81657;BMP280;71067;51.482;-0.580;2023-11-21T13:45:24;102322.66;;;12.24
81657;BMP280;71067;51.482;-0.580;2023-11-21T13:47:50;102321.53;;;12.17
81657;BMP280;71067;51.482;-0.580;2023-11-21T13:50:25;102327.44;;;12.19
81657;BMP280;71067;51.482;-0.580;2023-11-21T13:52:58;102341.16;;;12.01
81657;BMP280;71067;51.482;-0.580;2023-11-21T13:55:29;102334.00;;;11.93
81657;BMP280;71067;51.482;-0.580;2023-11-21T13:57:54;102338.75;;;11.88